createdAt,value
2017-07-02T00:00:11.880Z,5.50
2017-07-02T00:02:39.451Z,4.90
2017-07-02T00:05:07.796Z,5.30
2017-07-02T00:07:35.397Z,6.00
2017-07-02T00:10:02.943Z,5.00
2017-07-02T00:12:30.513Z,5.40
2017-07-02T00:14:58.053Z,5.53
2017-07-02T00:17:25.606Z,5.80
2017-07-02T00:19:53.174Z,4.83
2017-07-02T00:22:20.749Z,5.20
2017-07-02T00:24:48.277Z,4.80
2017-07-02T00:27:15.821Z,5.20
2017-07-02T00:29:43.357Z,4.93
2017-07-02T00:32:11.030Z,5.63
2017-07-02T00:34:38.572Z,5.17
2017-07-02T00:37:06.160Z,5.40
2017-07-02T00:39:33.707Z,5.27
2017-07-02T00:42:01.337Z,4.93
2017-07-02T00:44:29.635Z,5.03
2017-07-02T00:46:57.162Z,5.23
2017-07-02T00:49:24.715Z,4.40
2017-07-02T00:51:52.257Z,4.87
2017-07-02T00:54:19.803Z,5.23
2017-07-02T00:56:47.337Z,5.10
2017-07-02T00:59:14.962Z,4.90
2017-07-02T01:01:42.481Z,4.87
2017-07-02T01:04:10.052Z,4.20
2017-07-02T01:06:37.571Z,4.50
2017-07-02T01:09:05.132Z,5.33
2017-07-02T01:11:32.681Z,4.50
2017-07-02T01:14:00.259Z,4.23
2017-07-02T01:16:27.786Z,4.93
2017-07-02T01:18:55.324Z,4.77
2017-07-02T01:21:22.890Z,4.40
2017-07-02T01:23:50.409Z,3.90
2017-07-02T01:26:17.974Z,4.47
2017-07-02T01:28:45.496Z,4.30
2017-07-02T01:31:13.817Z,4.30
2017-07-02T01:33:41.360Z,4.73
2017-07-02T01:36:08.906Z,4.87
2017-07-02T01:38:36.457Z,3.80
2017-07-02T01:41:04.062Z,4.17
2017-07-02T01:43:31.623Z,4.10
2017-07-02T01:45:59.177Z,4.83
2017-07-02T01:48:26.742Z,5.10
2017-07-02T01:50:54.278Z,5.00
2017-07-02T01:53:21.846Z,4.37
2017-07-02T01:55:49.390Z,4.30
2017-07-02T01:58:16.965Z,4.50
2017-07-02T02:00:56.217Z,4.53
2017-07-02T02:03:23.777Z,4.20
2017-07-02T02:05:51.304Z,4.30
2017-07-02T02:08:18.889Z,4.67
2017-07-02T02:10:46.436Z,4.40
2017-07-02T02:13:13.986Z,4.03
2017-07-02T02:15:41.517Z,4.57
2017-07-02T02:18:09.281Z,5.17
2017-07-02T02:20:36.854Z,4.10
2017-07-02T02:23:04.434Z,4.60
2017-07-02T02:25:32.104Z,4.17
2017-07-02T02:27:59.647Z,3.80
2017-07-02T02:30:27.185Z,4.40
2017-07-02T02:32:54.721Z,4.80
2017-07-02T02:35:22.297Z,4.30
2017-07-02T02:37:49.884Z,4.33
2017-07-02T02:40:17.445Z,4.73
2017-07-02T02:42:45.004Z,4.17
2017-07-02T02:45:12.574Z,4.43
2017-07-02T02:47:40.125Z,4.00
2017-07-02T02:50:07.717Z,4.10
2017-07-02T02:52:35.252Z,4.30
2017-07-02T02:55:02.817Z,4.93
2017-07-02T02:57:30.410Z,4.37
2017-07-02T02:59:57.961Z,4.37
2017-07-02T03:02:25.516Z,4.87
2017-07-02T03:04:53.061Z,3.93
2017-07-02T03:07:20.631Z,4.13
2017-07-02T03:09:48.183Z,4.87
2017-07-02T03:12:15.749Z,4.53
2017-07-02T03:14:43.355Z,5.10
2017-07-02T03:17:10.928Z,4.10
2017-07-02T03:19:38.450Z,4.97
2017-07-02T03:22:06.027Z,4.83
2017-07-02T03:24:33.569Z,4.30
2017-07-02T03:27:01.121Z,4.43
2017-07-02T03:29:28.673Z,5.03
2017-07-02T03:31:56.263Z,4.73
2017-07-02T03:34:23.817Z,4.40
2017-07-02T03:36:51.379Z,4.70
2017-07-02T03:39:18.968Z,4.80
2017-07-02T03:41:46.549Z,3.93
2017-07-02T03:44:14.149Z,4.50
2017-07-02T03:46:41.762Z,4.00
2017-07-02T03:49:09.348Z,4.50
2017-07-02T03:51:36.878Z,4.20
2017-07-02T03:54:04.449Z,3.83
2017-07-02T03:56:32.013Z,4.47
2017-07-02T03:58:59.577Z,4.20
2017-07-02T04:01:27.102Z,4.37
2017-07-02T04:03:54.716Z,4.17
2017-07-02T04:06:22.244Z,3.60
2017-07-02T04:08:49.797Z,3.83
2017-07-02T04:11:17.337Z,4.23
2017-07-02T04:13:44.880Z,4.40
2017-07-02T04:16:12.441Z,4.23
2017-07-02T04:18:40.022Z,4.20
2017-07-02T04:21:07.566Z,4.30
2017-07-02T04:23:35.111Z,3.80
2017-07-02T04:26:02.657Z,4.00
2017-07-02T04:28:30.204Z,3.73
2017-07-02T04:30:57.764Z,3.47
2017-07-02T04:33:25.316Z,3.80
2017-07-02T04:35:52.912Z,3.53
2017-07-02T04:38:20.460Z,3.90
2017-07-02T04:40:47.993Z,4.30
2017-07-02T04:43:15.554Z,4.23
2017-07-02T04:45:43.149Z,3.83
2017-07-02T04:48:10.725Z,4.40
2017-07-02T04:50:38.325Z,3.70
2017-07-02T04:53:05.889Z,3.63
2017-07-02T04:55:33.409Z,3.50
2017-07-02T04:58:00.965Z,3.97
2017-07-02T05:00:28.521Z,3.70
2017-07-02T05:02:56.078Z,3.87
2017-07-02T05:05:23.606Z,4.20
2017-07-02T05:07:51.185Z,3.67
2017-07-02T05:10:18.735Z,4.03
2017-07-02T05:12:46.277Z,4.10
2017-07-02T05:15:13.853Z,3.20
2017-07-02T05:17:41.412Z,3.50
2017-07-02T05:20:08.978Z,3.40
2017-07-02T05:22:36.516Z,3.40
2017-07-02T05:25:04.088Z,3.70
2017-07-02T05:27:31.637Z,3.53
2017-07-02T05:29:59.241Z,4.43
2017-07-02T05:32:26.774Z,3.47
2017-07-02T05:34:54.369Z,3.57
2017-07-02T05:37:21.900Z,3.83
2017-07-02T05:39:49.441Z,3.60
2017-07-02T05:42:17.005Z,3.43
2017-07-02T05:44:44.560Z,4.33
2017-07-02T05:47:12.914Z,3.47
2017-07-02T05:49:40.479Z,3.93
2017-07-02T05:52:08.050Z,3.40
2017-07-02T05:54:35.614Z,3.97
2017-07-02T05:57:03.180Z,3.60
2017-07-02T05:59:30.734Z,3.70
2017-07-02T06:01:58.289Z,3.53
2017-07-02T06:04:25.832Z,3.63
2017-07-02T06:06:53.365Z,4.00
2017-07-02T06:09:20.933Z,4.10
2017-07-02T06:11:48.477Z,3.80
2017-07-02T06:14:16.059Z,4.60
2017-07-02T06:16:43.611Z,4.00
2017-07-02T06:19:11.172Z,4.17
2017-07-02T06:21:38.714Z,3.47
2017-07-02T06:24:06.277Z,3.47
2017-07-02T06:26:33.867Z,4.20
2017-07-02T06:29:01.420Z,3.90
2017-07-02T06:31:28.961Z,3.40
2017-07-02T06:33:56.555Z,3.70
2017-07-02T06:36:24.087Z,3.80
2017-07-02T06:38:51.647Z,3.67
2017-07-02T06:41:19.242Z,4.03
2017-07-02T06:43:46.787Z,3.57
2017-07-02T06:46:14.369Z,3.47
2017-07-02T06:48:41.919Z,3.37
2017-07-02T06:51:09.489Z,4.03
2017-07-02T06:53:37.009Z,3.80
2017-07-02T06:56:04.598Z,3.40
2017-07-02T06:58:32.170Z,3.47
2017-07-02T07:00:59.714Z,3.83
2017-07-02T07:03:27.288Z,3.73
2017-07-02T07:05:54.901Z,3.47
2017-07-02T07:08:22.456Z,3.50
2017-07-02T07:10:50.005Z,4.43
2017-07-02T07:13:17.575Z,3.67
2017-07-02T07:15:45.133Z,3.30
2017-07-02T07:18:12.704Z,3.27
2017-07-02T07:20:40.233Z,3.33
2017-07-02T07:23:07.794Z,3.30
2017-07-02T07:25:35.356Z,3.73
2017-07-02T07:28:02.957Z,3.33
2017-07-02T07:30:30.522Z,3.30
2017-07-02T07:32:58.070Z,3.60
2017-07-02T07:35:25.593Z,3.50
2017-07-02T07:37:53.196Z,3.10
2017-07-02T07:40:20.724Z,3.00
2017-07-02T07:42:48.281Z,3.50
2017-07-02T07:45:15.852Z,3.20
2017-07-02T07:47:43.429Z,3.10
2017-07-02T07:50:10.989Z,3.10
2017-07-02T07:52:38.534Z,3.17
2017-07-02T07:55:06.094Z,3.50
2017-07-02T07:57:33.627Z,3.20
2017-07-02T08:00:01.248Z,3.60
2017-07-02T08:02:28.813Z,4.07
2017-07-02T08:04:56.445Z,4.03
2017-07-02T08:07:24.051Z,4.10
2017-07-02T08:09:51.613Z,3.93
2017-07-02T08:12:19.202Z,4.33
2017-07-02T08:14:46.817Z,3.90
2017-07-02T08:17:14.369Z,3.83
2017-07-02T08:19:41.926Z,3.60
2017-07-02T08:22:09.508Z,3.40
2017-07-02T08:24:37.061Z,3.60
2017-07-02T08:27:04.642Z,3.93
2017-07-02T08:29:32.189Z,4.63
2017-07-02T08:31:59.749Z,4.47
2017-07-02T08:34:27.361Z,4.17
2017-07-02T08:36:54.933Z,4.40
2017-07-02T08:39:22.541Z,4.10
2017-07-02T08:41:50.173Z,4.27
2017-07-02T08:44:17.746Z,3.97
2017-07-02T08:46:45.293Z,4.30
2017-07-02T08:49:12.846Z,4.17
2017-07-02T08:51:40.407Z,4.17
2017-07-02T08:54:07.977Z,4.33
2017-07-02T08:56:35.546Z,4.57
2017-07-02T08:59:03.112Z,4.40
2017-07-02T09:01:30.657Z,4.70
2017-07-02T09:03:58.270Z,3.67
2017-07-02T09:06:25.802Z,4.83
2017-07-02T09:08:53.383Z,4.10
2017-07-02T09:11:20.962Z,4.73
2017-07-02T09:13:48.577Z,4.87
2017-07-02T09:16:16.701Z,4.33
2017-07-02T09:18:44.294Z,4.60
2017-07-02T09:21:11.902Z,4.67
2017-07-02T09:23:39.482Z,4.70
2017-07-02T09:26:07.093Z,4.80
2017-07-02T09:28:34.658Z,4.50
2017-07-02T09:31:02.278Z,4.40
2017-07-02T09:33:29.845Z,4.20
2017-07-02T09:35:57.398Z,4.43
2017-07-02T09:38:24.961Z,4.43
2017-07-02T09:40:52.536Z,3.93
2017-07-02T09:43:20.125Z,4.00
2017-07-02T09:45:47.677Z,3.63
2017-07-02T09:48:15.269Z,3.73
2017-07-02T09:50:42.852Z,3.03
2017-07-02T09:53:10.499Z,3.60
2017-07-02T09:55:38.025Z,3.60
2017-07-02T09:58:05.640Z,3.53
2017-07-02T10:00:33.209Z,3.00
2017-07-02T10:03:00.769Z,3.30
2017-07-02T10:05:28.307Z,3.30
2017-07-02T10:07:55.860Z,3.07
2017-07-02T10:10:23.461Z,3.23
2017-07-02T10:12:50.994Z,3.67
2017-07-02T10:15:18.597Z,3.73
2017-07-02T10:17:46.157Z,3.20
2017-07-02T10:20:14.119Z,2.80
2017-07-02T10:22:41.701Z,3.00
2017-07-02T10:25:09.276Z,3.20
2017-07-02T10:27:36.829Z,2.93
2017-07-02T10:30:04.449Z,2.43
2017-07-02T10:32:32.041Z,2.77
2017-07-02T10:34:59.600Z,2.50
2017-07-02T10:37:27.145Z,2.93
2017-07-02T10:39:54.717Z,3.10
2017-07-02T10:42:22.284Z,2.80
2017-07-02T10:44:49.838Z,2.93
2017-07-02T10:47:17.427Z,2.60
2017-07-02T10:49:44.964Z,2.60
2017-07-02T10:52:12.537Z,2.63
2017-07-02T10:54:40.089Z,2.40
2017-07-02T10:57:07.642Z,2.23
2017-07-02T10:59:35.200Z,2.00
2017-07-02T11:02:02.821Z,2.07
2017-07-02T11:04:30.391Z,2.30
2017-07-02T11:06:57.943Z,2.13
2017-07-02T11:09:25.492Z,2.20
2017-07-02T11:11:53.028Z,1.70
2017-07-02T11:14:20.625Z,2.17
2017-07-02T11:16:48.145Z,1.97
2017-07-02T11:19:15.729Z,1.73
2017-07-02T11:21:43.254Z,1.73
2017-07-02T11:24:10.803Z,1.90
2017-07-02T11:26:38.346Z,1.93
2017-07-02T11:29:05.924Z,1.77
2017-07-02T11:31:33.494Z,1.60
2017-07-02T11:34:01.025Z,1.60
2017-07-02T11:36:28.566Z,1.30
2017-07-02T11:38:56.169Z,1.23
2017-07-02T11:41:23.808Z,1.27
2017-07-02T11:43:51.366Z,1.33
2017-07-02T11:46:18.914Z,1.30
2017-07-02T11:48:46.473Z,1.23
2017-07-02T11:51:14.049Z,1.13
2017-07-02T11:53:41.621Z,1.67
2017-07-02T11:56:09.190Z,1.00
2017-07-02T11:58:36.733Z,1.30
2017-07-02T12:01:04.297Z,1.10
2017-07-02T12:03:31.888Z,1.00
2017-07-02T12:05:59.418Z,1.03
2017-07-02T12:08:26.969Z,1.00
2017-07-02T12:10:54.544Z,1.10
2017-07-02T12:13:22.093Z,1.20
2017-07-02T12:15:49.658Z,1.00
2017-07-02T12:18:17.230Z,0.90
2017-07-02T12:20:44.774Z,1.20
2017-07-02T12:23:12.313Z,1.23
2017-07-02T12:25:39.872Z,1.30
2017-07-02T12:28:07.445Z,1.40
2017-07-02T12:30:35.024Z,1.10
2017-07-02T12:33:02.569Z,1.43
2017-07-02T12:35:30.109Z,1.40
2017-07-02T12:37:57.688Z,1.30
2017-07-02T12:40:25.241Z,1.40
2017-07-02T12:42:52.813Z,1.20
2017-07-02T12:45:20.349Z,1.57
2017-07-02T12:47:48.932Z,1.20
2017-07-02T12:50:16.510Z,1.70
2017-07-02T12:52:44.091Z,1.50
2017-07-02T12:55:11.641Z,1.50
2017-07-02T12:57:39.214Z,1.57
2017-07-02T13:00:06.779Z,1.20
2017-07-02T13:02:34.326Z,1.40
2017-07-02T13:05:01.879Z,1.40
2017-07-02T13:07:29.427Z,1.73
2017-07-02T13:09:56.993Z,2.40
2017-07-02T13:12:24.627Z,1.90
2017-07-02T13:14:52.229Z,1.10
2017-07-02T13:17:19.795Z,1.23
2017-07-02T13:19:47.358Z,1.50
2017-07-02T13:22:14.882Z,1.60
2017-07-02T13:24:42.430Z,1.53
2017-07-02T13:27:10.006Z,1.33
2017-07-02T13:29:37.571Z,1.70
2017-07-02T13:32:05.126Z,1.30
2017-07-02T13:34:32.685Z,1.50
2017-07-02T13:37:00.301Z,1.50
2017-07-02T13:39:27.845Z,1.90
2017-07-02T13:41:55.437Z,1.60
2017-07-02T13:44:23.890Z,1.93
2017-07-02T13:46:51.542Z,1.67
2017-07-02T13:49:19.233Z,1.80
2017-07-02T13:51:48.503Z,1.50
2017-07-02T13:54:16.116Z,1.90
2017-07-02T13:56:43.903Z,1.50
2017-07-02T13:59:11.537Z,1.80
2017-07-02T14:01:39.111Z,1.80
2017-07-02T14:04:06.695Z,2.00
2017-07-02T14:06:34.283Z,1.53
2017-07-02T14:09:01.838Z,2.00
2017-07-02T14:11:29.375Z,2.30
2017-07-02T14:13:57.014Z,2.87
2017-07-02T14:16:24.570Z,2.13
2017-07-02T14:18:52.166Z,3.10
2017-07-02T14:21:19.717Z,6.63
2017-07-02T14:23:47.306Z,3.37
2017-07-02T14:26:14.879Z,3.37
2017-07-02T14:28:42.472Z,2.73
2017-07-02T14:31:10.010Z,3.10
2017-07-02T14:33:37.618Z,2.90
2017-07-02T14:36:05.137Z,2.50
2017-07-02T14:38:32.699Z,2.80
2017-07-02T14:41:01.030Z,2.57
2017-07-02T14:43:28.552Z,2.37
2017-07-02T14:45:56.099Z,2.50
2017-07-02T14:48:23.626Z,2.17
2017-07-02T14:50:51.179Z,2.27
2017-07-02T14:53:18.722Z,2.70
2017-07-02T14:55:46.290Z,2.43
2017-07-02T14:58:14.613Z,4.47
2017-07-02T15:00:42.181Z,4.30
2017-07-02T15:03:09.734Z,3.57
2017-07-02T15:05:37.308Z,2.70
2017-07-02T15:08:04.870Z,3.10
2017-07-02T15:10:32.421Z,2.50
2017-07-02T15:12:59.990Z,2.40
2017-07-02T15:15:27.540Z,1.90
2017-07-02T15:17:55.122Z,2.53
2017-07-02T15:20:22.668Z,2.10
2017-07-02T15:22:50.241Z,1.50
2017-07-02T15:25:17.789Z,1.50
2017-07-02T15:27:45.362Z,1.80
2017-07-02T15:30:12.926Z,1.73
2017-07-02T15:32:40.504Z,1.80
2017-07-02T15:35:08.067Z,2.10
2017-07-02T15:37:35.649Z,1.70
2017-07-02T15:40:03.213Z,4.10
2017-07-02T15:42:30.805Z,2.37
2017-07-02T15:44:58.398Z,1.47
2017-07-02T15:47:25.971Z,2.13
2017-07-02T15:49:53.527Z,1.50
2017-07-02T15:52:21.085Z,1.63
2017-07-02T15:54:48.635Z,2.87
2017-07-02T15:57:16.225Z,3.57
2017-07-02T15:59:44.891Z,3.43
2017-07-02T16:02:12.423Z,3.10
2017-07-02T16:04:39.973Z,1.93
2017-07-02T16:07:07.527Z,2.87
2017-07-02T16:09:35.118Z,2.10
2017-07-02T16:12:02.686Z,1.63
2017-07-02T16:14:30.257Z,1.90
2017-07-02T16:16:57.856Z,1.70
2017-07-02T16:19:25.406Z,1.70
2017-07-02T16:21:52.978Z,1.73
2017-07-02T16:24:20.545Z,1.50
2017-07-02T16:26:48.077Z,1.73
2017-07-02T16:29:15.653Z,1.87
2017-07-02T16:31:43.255Z,1.30
2017-07-02T16:34:10.796Z,2.27
2017-07-02T16:36:38.338Z,2.40
2017-07-02T16:39:05.974Z,2.50
2017-07-02T16:41:33.562Z,2.37
2017-07-02T16:44:01.158Z,1.70
2017-07-02T16:46:28.734Z,1.87
2017-07-02T16:48:56.322Z,2.73
2017-07-02T16:51:24.174Z,5.40
2017-07-02T16:53:52.114Z,3.43
2017-07-02T16:56:19.670Z,2.90
2017-07-02T16:58:47.745Z,2.47
2017-07-02T17:01:15.321Z,2.43
2017-07-02T17:03:43.241Z,2.23
2017-07-02T17:06:10.825Z,2.20
2017-07-02T17:08:38.425Z,1.73
2017-07-02T17:11:06.017Z,2.43
2017-07-02T17:13:33.569Z,1.67
2017-07-02T17:16:01.145Z,1.47
2017-07-02T17:18:28.736Z,1.37
2017-07-02T17:20:56.323Z,1.40
2017-07-02T17:23:23.879Z,1.40
2017-07-02T17:25:52.258Z,1.50
2017-07-02T17:28:20.918Z,1.67
2017-07-02T17:30:48.469Z,1.30
2017-07-02T17:33:16.141Z,1.53
2017-07-02T17:35:43.703Z,1.30
2017-07-02T17:38:11.266Z,1.30
2017-07-02T17:40:38.844Z,1.63
2017-07-02T17:43:06.454Z,1.20
2017-07-02T17:45:33.983Z,1.80
2017-07-02T17:48:01.527Z,2.10
2017-07-02T17:50:29.069Z,2.40
2017-07-02T17:52:56.618Z,2.20
2017-07-02T17:55:24.193Z,2.20
2017-07-02T17:57:52.524Z,1.70
2017-07-02T18:00:20.078Z,1.33
2017-07-02T18:02:47.617Z,1.40
2017-07-02T18:05:15.161Z,1.70
2017-07-02T18:07:42.726Z,1.93
2017-07-02T18:10:10.306Z,1.80
2017-07-02T18:12:37.866Z,2.13
2017-07-02T18:15:05.486Z,1.63
2017-07-02T18:17:33.801Z,2.20
2017-07-02T18:20:01.402Z,2.00
2017-07-02T18:22:28.937Z,1.80
2017-07-02T18:24:56.482Z,1.80
2017-07-02T18:27:24.045Z,1.97
2017-07-02T18:29:51.584Z,1.83
2017-07-02T18:32:19.161Z,1.53
2017-07-02T18:34:46.722Z,1.57
2017-07-02T18:37:14.309Z,1.40
2017-07-02T18:39:42.095Z,1.40
2017-07-02T18:42:09.668Z,1.60
2017-07-02T18:44:37.225Z,1.40
2017-07-02T18:47:04.796Z,1.77
2017-07-02T18:49:32.349Z,1.37
2017-07-02T18:52:00.692Z,2.23
2017-07-02T18:54:28.209Z,1.70
2017-07-02T18:56:55.740Z,1.73
2017-07-02T18:59:23.281Z,1.60
2017-07-02T19:01:50.878Z,1.97
2017-07-02T19:04:18.465Z,1.50
2017-07-02T19:06:46.968Z,1.63
2017-07-02T19:09:14.537Z,1.77
2017-07-02T19:11:42.108Z,1.57
2017-07-02T19:14:09.678Z,1.70
2017-07-02T19:16:37.246Z,2.37
2017-07-02T19:19:05.673Z,2.10
2017-07-02T19:21:33.254Z,1.93
2017-07-02T19:24:00.823Z,2.47
2017-07-02T19:26:28.378Z,2.27
2017-07-02T19:28:55.974Z,2.30
2017-07-02T19:31:23.557Z,2.27
2017-07-02T19:33:51.082Z,3.00
2017-07-02T19:36:18.635Z,1.80
2017-07-02T19:38:46.189Z,2.13
2017-07-02T19:41:13.759Z,2.20
2017-07-02T19:43:42.069Z,3.10
2017-07-02T19:46:09.666Z,3.30
2017-07-02T19:48:37.281Z,2.60
2017-07-02T19:51:05.018Z,3.07
2017-07-02T19:53:32.583Z,2.90
2017-07-02T19:56:00.145Z,3.60
2017-07-02T19:58:27.679Z,2.80
2017-07-02T20:00:55.262Z,3.47
2017-07-02T20:03:22.787Z,4.30
2017-07-02T20:05:50.450Z,5.60
2017-07-02T20:08:18.014Z,5.10
2017-07-02T20:10:45.586Z,4.70
2017-07-02T20:13:13.153Z,5.53
2017-07-02T20:15:40.729Z,5.67
2017-07-02T20:18:09.073Z,5.60
2017-07-02T20:20:36.645Z,6.03
2017-07-02T20:23:05.035Z,6.80
2017-07-02T20:25:32.621Z,7.23
2017-07-02T20:28:00.194Z,6.33
2017-07-02T20:30:27.756Z,6.63
2017-07-02T20:32:55.328Z,7.17
2017-07-02T20:35:22.877Z,6.80
2017-07-02T20:37:50.453Z,7.07
2017-07-02T20:40:18.050Z,6.73
2017-07-02T20:42:45.598Z,6.93
2017-07-02T20:45:13.204Z,6.07
2017-07-02T20:47:40.774Z,6.93
2017-07-02T20:50:08.357Z,5.30
2017-07-02T20:52:35.898Z,5.07
2017-07-02T20:55:03.504Z,5.33
2017-07-02T20:57:31.033Z,4.70
2017-07-02T20:59:58.593Z,5.03
2017-07-02T21:02:26.258Z,4.67
2017-07-02T21:04:53.800Z,4.37
2017-07-02T21:07:21.313Z,3.57
2017-07-02T21:09:48.881Z,3.70
2017-07-02T21:12:17.173Z,3.33
2017-07-02T21:14:44.767Z,3.23
2017-07-02T21:17:12.296Z,3.33
2017-07-02T21:19:39.969Z,3.30
2017-07-02T21:22:07.513Z,2.90
2017-07-02T21:24:35.257Z,2.80
2017-07-02T21:27:03.557Z,3.20
2017-07-02T21:29:31.153Z,2.97
2017-07-02T21:31:58.677Z,2.50
2017-07-02T21:34:26.265Z,2.87
2017-07-02T21:36:53.816Z,3.00
2017-07-02T21:39:21.402Z,2.90
2017-07-02T21:41:48.936Z,3.17
2017-07-02T21:44:16.509Z,2.60
2017-07-02T21:46:44.037Z,2.37
2017-07-02T21:49:11.589Z,2.83
2017-07-02T21:51:39.916Z,2.40
2017-07-02T21:54:07.512Z,2.27
2017-07-02T21:56:35.026Z,2.10
2017-07-02T21:59:02.624Z,2.30
2017-07-02T22:01:30.181Z,2.10
2017-07-02T22:03:57.737Z,2.17
2017-07-02T22:06:25.293Z,2.40
2017-07-02T22:08:52.845Z,2.10
2017-07-02T22:11:20.400Z,2.53
2017-07-02T22:13:47.953Z,1.90
2017-07-02T22:16:15.732Z,1.83
2017-07-02T22:18:43.357Z,2.47
2017-07-02T22:21:10.920Z,2.30
2017-07-02T22:23:38.486Z,1.70
2017-07-02T22:26:06.034Z,2.27
2017-07-02T22:28:33.715Z,2.03
2017-07-02T22:31:01.239Z,2.20
2017-07-02T22:33:29.528Z,1.70
2017-07-02T22:35:57.086Z,2.13
2017-07-02T22:38:24.689Z,2.00
2017-07-02T22:40:52.258Z,1.90
2017-07-02T22:43:19.800Z,2.40
2017-07-02T22:45:47.375Z,2.17
2017-07-02T22:48:14.921Z,2.00
2017-07-02T22:50:42.461Z,1.93
2017-07-02T22:53:10.005Z,2.17
2017-07-02T22:55:37.572Z,2.07
2017-07-02T22:58:05.122Z,2.30
2017-07-02T23:00:32.673Z,2.83
2017-07-02T23:03:00.248Z,3.37
2017-07-02T23:05:27.781Z,2.07
2017-07-02T23:10:29.889Z,2.20
2017-07-02T23:12:57.453Z,2.27
2017-07-02T23:15:25.056Z,2.40
2017-07-02T23:17:52.619Z,1.63
2017-07-02T23:20:20.211Z,2.17
2017-07-02T23:22:47.769Z,1.67
2017-07-02T23:25:15.295Z,1.80
2017-07-02T23:27:42.865Z,2.00
2017-07-02T23:30:10.414Z,1.80
2017-07-02T23:32:37.985Z,1.53
2017-07-02T23:35:05.536Z,2.03
2017-07-02T23:37:33.069Z,2.17
2017-07-02T23:40:00.604Z,1.67
2017-07-02T23:42:28.196Z,1.80
2017-07-02T23:44:55.763Z,2.43
2017-07-02T23:47:23.281Z,1.80
2017-07-02T23:49:50.816Z,1.93
2017-07-02T23:52:19.109Z,1.83
2017-07-02T23:54:46.655Z,1.60
2017-07-02T23:57:14.253Z,2.00
2017-07-02T23:59:41.797Z,1.63
